sensor_id;sensor_type;location;lat;lon;timestamp;temperature;humidity
12041;DHT22;6081;48.734;9.108;2022-07-21T00:01:15;20.20;99.90
12041;DHT22;6081;48.734;9.108;2022-07-21T00:11:18;20.40;99.90
12041;DHT22;6081;48.734;9.108;2022-07-21T00:21:20;20.10;99.90
12041;DHT22;6081;48.734;9.108;2022-07-21T00:31:23;20.00;99.90
12041;DHT22;6081;48.734;9.108;2022-07-21T00:41:25;19.70;99.90
12041;DHT22;6081;48.734;9.108;2022-07-21T00:51:28;19.80;99.90
12041;DHT22;6081;48.734;9.108;2022-07-21T01:01:30;20.20;99.90
12041;DHT22;6081;48.734;9.108;2022-07-21T01:11:34;20.00;99.90
12041;DHT22;6081;48.734;9.108;2022-07-21T01:21:39;20.00;99.90
12041;DHT22;6081;48.734;9.108;2022-07-21T01:31:43;19.90;99.90
12041;DHT22;6081;48.734;9.108;2022-07-21T01:41:46;19.90;99.90
12041;DHT22;6081;48.734;9.108;2022-07-21T01:51:48;19.70;99.90
12041;DHT22;6081;48.734;9.108;2022-07-21T02:01:51;19.80;99.90
12041;DHT22;6081;48.734;9.108;2022-07-21T02:11:53;19.90;99.90
12041;DHT22;6081;48.734;9.108;2022-07-21T02:21:56;19.70;99.90
12041;DHT22;6081;48.734;9.108;2022-07-21T02:31:58;19.70;99.90
12041;DHT22;6081;48.734;9.108;2022-07-21T02:42:01;19.50;99.90
12041;DHT22;6081;48.734;9.108;2022-07-21T02:52:04;19.60;99.90
12041;DHT22;6081;48.734;9.108;2022-07-21T03:02:07;19.50;99.90
12041;DHT22;6081;48.734;9.108;2022-07-21T03:12:09;19.60;99.90
12041;DHT22;6081;48.734;9.108;2022-07-21T03:22:12;19.30;99.90
12041;DHT22;6081;48.734;9.108;2022-07-21T03:32:14;19.30;99.90
12041;DHT22;6081;48.734;9.108;2022-07-21T03:42:17;19.20;99.90
12041;DHT22;6081;48.734;9.108;2022-07-21T03:52:19;19.40;99.90
12041;DHT22;6081;48.734;9.108;2022-07-21T04:02:22;19.30;99.90
12041;DHT22;6081;48.734;9.108;2022-07-21T04:12:25;19.40;99.90
12041;DHT22;6081;48.734;9.108;2022-07-21T04:22:29;19.60;99.90
12041;DHT22;6081;48.734;9.108;2022-07-21T04:32:31;19.40;99.90
12041;DHT22;6081;48.734;9.108;2022-07-21T04:42:35;19.40;99.90
12041;DHT22;6081;48.734;9.108;2022-07-21T04:52:37;19.40;99.90
12041;DHT22;6081;48.734;9.108;2022-07-21T05:02:40;19.50;99.90
12041;DHT22;6081;48.734;9.108;2022-07-21T05:12:42;19.60;99.90
12041;DHT22;6081;48.734;9.108;2022-07-21T05:22:45;20.00;99.90
12041;DHT22;6081;48.734;9.108;2022-07-21T05:32:47;20.60;99.90
12041;DHT22;6081;48.734;9.108;2022-07-21T05:42:50;22.40;99.90
12041;DHT22;6081;48.734;9.108;2022-07-21T05:52:52;27.70;99.90
12041;DHT22;6081;48.734;9.108;2022-07-21T06:02:55;29.70;99.90
12041;DHT22;6081;48.734;9.108;2022-07-21T06:12:57;31.10;99.90
12041;DHT22;6081;48.734;9.108;2022-07-21T06:23:00;32.30;99.90
12041;DHT22;6081;48.734;9.108;2022-07-21T06:33:02;32.40;99.90
12041;DHT22;6081;48.734;9.108;2022-07-21T06:43:06;29.60;99.90
12041;DHT22;6081;48.734;9.108;2022-07-21T06:53:08;31.90;99.90
12041;DHT22;6081;48.734;9.108;2022-07-21T07:03:11;33.00;99.90
12041;DHT22;6081;48.734;9.108;2022-07-21T07:13:13;34.60;97.60
12041;DHT22;6081;48.734;9.108;2022-07-21T07:23:17;33.50;96.80
12041;DHT22;6081;48.734;9.108;2022-07-21T07:33:19;33.60;97.10
12041;DHT22;6081;48.734;9.108;2022-07-21T07:43:23;32.50;95.20
12041;DHT22;6081;48.734;9.108;2022-07-21T07:53:25;31.10;98.20
12041;DHT22;6081;48.734;9.108;2022-07-21T08:03:28;29.90;99.80
12041;DHT22;6081;48.734;9.108;2022-07-21T08:13:31;27.30;99.90
12041;DHT22;6081;48.734;9.108;2022-07-21T08:23:34;26.30;99.90
12041;DHT22;6081;48.734;9.108;2022-07-21T08:33:36;27.20;99.90
12041;DHT22;6081;48.734;9.108;2022-07-21T08:43:39;26.30;99.90
12041;DHT22;6081;48.734;9.108;2022-07-21T08:53:43;25.80;99.90
12041;DHT22;6081;48.734;9.108;2022-07-21T09:03:46;26.90;99.90
12041;DHT22;6081;48.734;9.108;2022-07-21T09:14:03;27.30;99.90
12041;DHT22;6081;48.734;9.108;2022-07-21T09:24:19;26.70;99.90
12041;DHT22;6081;48.734;9.108;2022-07-21T09:34:21;27.40;99.90
12041;DHT22;6081;48.734;9.108;2022-07-21T09:44:30;27.10;99.90
12041;DHT22;6081;48.734;9.108;2022-07-21T09:54:33;27.20;99.90
12041;DHT22;6081;48.734;9.108;2022-07-21T10:04:37;27.70;99.90
12041;DHT22;6081;48.734;9.108;2022-07-21T10:14:39;27.90;99.90
12041;DHT22;6081;48.734;9.108;2022-07-21T10:24:42;28.60;99.50
12041;DHT22;6081;48.734;9.108;2022-07-21T10:34:45;28.60;97.40
12041;DHT22;6081;48.734;9.108;2022-07-21T10:44:50;27.30;99.90
12041;DHT22;6081;48.734;9.108;2022-07-21T10:55:13;28.60;98.20
12041;DHT22;6081;48.734;9.108;2022-07-21T11:05:19;28.40;98.20
12041;DHT22;6081;48.734;9.108;2022-07-21T11:15:45;28.70;95.90
12041;DHT22;6081;48.734;9.108;2022-07-21T11:25:49;28.90;96.90
12041;DHT22;6081;48.734;9.108;2022-07-21T11:35:51;28.40;96.10
12041;DHT22;6081;48.734;9.108;2022-07-21T11:45:54;29.80;93.60
12041;DHT22;6081;48.734;9.108;2022-07-21T11:55:56;29.60;90.60
12041;DHT22;6081;48.734;9.108;2022-07-21T12:06:00;29.10;90.90
12041;DHT22;6081;48.734;9.108;2022-07-21T12:16:03;27.80;93.70
12041;DHT22;6081;48.734;9.108;2022-07-21T12:26:06;28.90;92.10
12041;DHT22;6081;48.734;9.108;2022-07-21T12:36:20;29.20;92.10
12041;DHT22;6081;48.734;9.108;2022-07-21T12:46:28;27.10;94.20
12041;DHT22;6081;48.734;9.108;2022-07-21T12:56:33;28.40;93.90
12041;DHT22;6081;48.734;9.108;2022-07-21T13:06:36;28.40;93.60
12041;DHT22;6081;48.734;9.108;2022-07-21T13:16:38;28.40;93.20
12041;DHT22;6081;48.734;9.108;2022-07-21T13:26:41;27.90;93.40
12041;DHT22;6081;48.734;9.108;2022-07-21T13:36:43;28.50;92.00
12041;DHT22;6081;48.734;9.108;2022-07-21T13:46:46;27.40;96.40
12041;DHT22;6081;48.734;9.108;2022-07-21T13:56:48;27.70;96.30
12041;DHT22;6081;48.734;9.108;2022-07-21T14:06:52;27.90;96.70
12041;DHT22;6081;48.734;9.108;2022-07-21T14:16:53;28.00;94.00
12041;DHT22;6081;48.734;9.108;2022-07-21T14:26:57;27.70;95.40
12041;DHT22;6081;48.734;9.108;2022-07-21T14:36:58;27.60;94.20
12041;DHT22;6081;48.734;9.108;2022-07-21T14:47:02;27.20;96.60
12041;DHT22;6081;48.734;9.108;2022-07-21T14:57:04;27.10;96.70
12041;DHT22;6081;48.734;9.108;2022-07-21T15:07:07;27.30;95.40
12041;DHT22;6081;48.734;9.108;2022-07-21T15:17:09;27.30;94.60
12041;DHT22;6081;48.734;9.108;2022-07-21T15:27:12;28.00;93.70
12041;DHT22;6081;48.734;9.108;2022-07-21T15:37:14;27.50;93.90
12041;DHT22;6081;48.734;9.108;2022-07-21T15:47:17;27.20;93.80
12041;DHT22;6081;48.734;9.108;2022-07-21T15:57:19;27.20;95.30
12041;DHT22;6081;48.734;9.108;2022-07-21T16:07:22;27.10;94.70
12041;DHT22;6081;48.734;9.108;2022-07-21T16:17:24;27.00;95.90
12041;DHT22;6081;48.734;9.108;2022-07-21T16:27:28;26.60;96.20
12041;DHT22;6081;48.734;9.108;2022-07-21T16:37:29;26.70;95.90
12041;DHT22;6081;48.734;9.108;2022-07-21T16:47:33;26.90;95.90
12041;DHT22;6081;48.734;9.108;2022-07-21T16:57:34;26.40;94.90
12041;DHT22;6081;48.734;9.108;2022-07-21T17:07:38;26.30;95.00
